TimeEST,TemperatureF,Dew PointF,Humidity,Sea Level PressureIn,VisibilityMPH,Wind Direction,Wind SpeedMPH,Gust SpeedMPH,PrecipitationIn,Events,Conditions,WindDirDegrees,DateUTC
12:53 AM,27.0,18.0,69,30.12,10.0,NNE,8.1,-,N/A,,Overcast,30,2013-03-02 05:53:00
1:53 AM,27.0,18.0,69,30.11,10.0,NNE,6.9,-,N/A,,Overcast,30,2013-03-02 06:53:00
2:53 AM,27.0,19.0,72,30.11,10.0,North,8.1,-,N/A,,Overcast,10,2013-03-02 07:53:00
4:53 AM,26.1,18.0,71,30.10,10.0,North,8.1,-,N/A,,Overcast,10,2013-03-02 09:53:00
5:53 AM,26.1,17.1,69,30.09,10.0,North,9.2,-,0.00,,Overcast,360,2013-03-02 10:53:00
7:53 AM,26.1,18.0,71,30.11,10.0,North,8.1,-,0.00,,Overcast,360,2013-03-02 12:53:00
8:53 AM,26.1,18.0,71,30.12,7.0,North,11.5,-,0.00,Snow,Light Snow,360,2013-03-02 13:53:00
9:36 AM,26.6,17.6,69,30.08,9.0,North,9.2,-,0.00,Snow,Light Snow,350,2013-03-02 14:36:00
9:53 AM,27.0,18.0,69,30.12,10.0,NNW,11.5,-,0.00,,Overcast,340,2013-03-02 14:53:00
10:04 AM,26.6,17.6,69,30.08,10.0,North,9.2,-,N/A,,Overcast,350,2013-03-02 15:04:00
10:11 AM,28.4,17.6,64,30.08,10.0,North,9.2,-,N/A,,Overcast,350,2013-03-02 15:11:00
10:21 AM,26.6,17.6,69,30.09,10.0,NNW,11.5,-,N/A,,Overcast,340,2013-03-02 15:21:00
10:43 AM,26.6,19.4,74,30.08,10.0,NNW,10.4,-,N/A,,Overcast,340,2013-03-02 15:43:00
10:53 AM,27.0,19.0,72,30.12,10.0,NW,12.7,17.3,N/A,,Overcast,320,2013-03-02 15:53:00
11:44 AM,28.4,19.4,69,30.08,10.0,North,9.2,-,N/A,,Overcast,360,2013-03-02 16:44:00
11:53 AM,28.0,19.0,69,30.11,10.0,NNW,10.4,-,N/A,,Overcast,340,2013-03-02 16:53:00
12:17 PM,28.4,19.4,69,30.08,10.0,NNW,9.2,-,N/A,,Overcast,340,2013-03-02 17:17:00
12:32 PM,28.4,19.4,69,30.07,10.0,NNW,9.2,-,N/A,,Overcast,340,2013-03-02 17:32:00
12:53 PM,28.0,19.0,69,30.09,10.0,NNW,11.5,-,N/A,,Overcast,330,2013-03-02 17:53:00
1:06 PM,28.4,19.4,69,30.06,10.0,NNW,11.5,-,N/A,,Overcast,330,2013-03-02 18:06:00
1:53 PM,28.0,18.0,66,30.09,10.0,NNW,8.1,-,N/A,,Overcast,340,2013-03-02 18:53:00
2:53 PM,28.0,17.1,63,30.08,10.0,North,8.1,-,N/A,,Overcast,360,2013-03-02 19:53:00
3:53 PM,28.0,17.1,63,30.08,10.0,North,8.1,-,N/A,,Overcast,350,2013-03-02 20:53:00
4:53 PM,28.0,17.1,63,30.09,10.0,NNE,9.2,-,N/A,,Overcast,20,2013-03-02 21:53:00
5:53 PM,27.0,17.1,66,30.10,10.0,North,5.8,-,N/A,,Overcast,360,2013-03-02 22:53:00
6:53 PM,27.0,17.1,66,30.11,10.0,North,8.1,-,N/A,,Overcast,350,2013-03-02 23:53:00
8:53 PM,27.0,17.1,66,30.11,10.0,NW,9.2,-,N/A,,Overcast,320,2013-03-03 01:53:00
9:53 PM,26.1,16.0,66,30.12,10.0,North,8.1,-,N/A,,Overcast,350,2013-03-03 02:53:00
10:46 PM,26.6,15.8,64,30.08,10.0,NNW,11.5,-,N/A,,Overcast,330,2013-03-03 03:46:00
10:53 PM,26.1,15.1,63,30.11,10.0,NNW,10.4,-,N/A,,Overcast,330,2013-03-03 03:53:00
11:53 PM,25.0,16.0,69,30.11,10.0,NNW,8.1,-,N/A,,Overcast,330,2013-03-03 04:53:00